sensor_id;sensor_type;location;lat;lon;timestamp;pressure;altitude;pressure_sealevel;temperature;humidity
7058;BME280;3570;43.080;25.628;2022-09-13T00:01:55;-19912.88;;;15.79;100.00
7058;BME280;3570;43.080;25.628;2022-09-13T00:04:39;-19912.00;;;15.76;100.00
7058;BME280;3570;43.080;25.628;2022-09-13T00:07:24;-19910.53;;;15.71;100.00
7058;BME280;3570;43.080;25.628;2022-09-13T00:10:08;-19910.69;;;15.72;100.00
7058;BME280;3570;43.080;25.628;2022-09-13T00:12:53;-19909.81;;;15.69;100.00
7058;BME280;3570;43.080;25.628;2022-09-13T00:15:42;-19912.00;;;15.76;100.00
7058;BME280;3570;43.080;25.628;2022-09-13T00:18:26;-19917.81;;;15.96;100.00
7058;BME280;3570;43.080;25.628;2022-09-13T00:21:16;-19918.41;;;15.98;100.00
7058;BME280;3570;43.080;25.628;2022-09-13T00:24:01;-19915.19;;;15.87;100.00
7058;BME280;3570;43.080;25.628;2022-09-13T00:26:45;-19925.97;;;16.25;100.00
7058;BME280;3570;43.080;25.628;2022-09-13T00:29:29;-19929.16;;;16.36;100.00
7058;BME280;3570;43.080;25.628;2022-09-13T00:32:13;-19926.09;;;16.25;100.00
7058;BME280;3570;43.080;25.628;2022-09-13T00:34:57;-19919.69;;;16.03;100.00
7058;BME280;3570;43.080;25.628;2022-09-13T00:37:41;-19915.06;;;15.87;100.00
7058;BME280;3570;43.080;25.628;2022-09-13T00:40:25;-19910.53;;;15.71;100.00
7058;BME280;3570;43.080;25.628;2022-09-13T00:43:16;-19914.63;;;15.85;100.00
7058;BME280;3570;43.080;25.628;2022-09-13T00:46:01;-19916.50;;;15.92;100.00
7058;BME280;3570;43.080;25.628;2022-09-13T00:48:48;-19916.94;;;15.93;100.00
7058;BME280;3570;43.080;25.628;2022-09-13T00:51:34;-19933.53;;;16.51;100.00
7058;BME280;3570;43.080;25.628;2022-09-13T00:54:21;-19943.84;;;16.86;100.00
7058;BME280;3570;43.080;25.628;2022-09-13T00:57:08;-19953.59;;;17.20;100.00
7058;BME280;3570;43.080;25.628;2022-09-13T01:00:10;-19969.28;;;17.74;100.00
7058;BME280;3570;43.080;25.628;2022-09-13T01:03:01;-19981.47;;;18.17;100.00
7058;BME280;3570;43.080;25.628;2022-09-13T01:05:53;-19988.59;;;18.41;100.00
7058;BME280;3570;43.080;25.628;2022-09-13T01:08:41;-19970.59;;;17.79;100.00
7058;BME280;3570;43.080;25.628;2022-09-13T01:11:47;-19968.69;;;17.72;100.00
7058;BME280;3570;43.080;25.628;2022-09-13T01:14:33;-19959.41;;;17.40;100.00
7058;BME280;3570;43.080;25.628;2022-09-13T01:17:18;-19932.94;;;16.49;100.00
7058;BME280;3570;43.080;25.628;2022-09-13T01:20:03;-19916.78;;;15.93;100.00
7058;BME280;3570;43.080;25.628;2022-09-13T01:33:04;-19894.25;;;15.15;100.00
7058;BME280;3570;43.080;25.628;2022-09-13T01:42:44;-19900.19;;;15.36;100.00
7058;BME280;3570;43.080;25.628;2022-09-13T01:48:24;-19917.97;;;15.97;100.00
7058;BME280;3570;43.080;25.628;2022-09-13T01:51:26;-19909.66;;;15.68;100.00
7058;BME280;3570;43.080;25.628;2022-09-13T01:59:51;-19939.78;;;16.72;100.00
7058;BME280;3570;43.080;25.628;2022-09-13T02:02:57;-19962.59;;;17.51;100.00
7058;BME280;3570;43.080;25.628;2022-09-13T02:06:20;-19980.31;;;18.13;100.00
7058;BME280;3570;43.080;25.628;2022-09-13T02:09:12;-19986.13;;;18.33;100.00
7058;BME280;3570;43.080;25.628;2022-09-13T02:12:02;-19998.16;;;18.74;100.00
7058;BME280;3570;43.080;25.628;2022-09-13T02:15:01;-19994.25;;;18.61;100.00
7058;BME280;3570;43.080;25.628;2022-09-13T02:17:56;-20009.63;;;19.14;100.00
7058;BME280;3570;43.080;25.628;2022-09-13T02:20:47;-20006.72;;;19.04;100.00
7058;BME280;3570;43.080;25.628;2022-09-13T02:23:37;-20010.50;;;19.17;100.00
7058;BME280;3570;43.080;25.628;2022-09-13T02:26:26;-20010.78;;;19.18;100.00
7058;BME280;3570;43.080;25.628;2022-09-13T02:29:17;-20008.19;;;19.09;100.00
7058;BME280;3570;43.080;25.628;2022-09-13T02:32:08;-20008.91;;;19.12;100.00
7058;BME280;3570;43.080;25.628;2022-09-13T02:35:00;-20006.44;;;19.03;100.00
7058;BME280;3570;43.080;25.628;2022-09-13T02:37:50;-20009.63;;;19.14;100.00
7058;BME280;3570;43.080;25.628;2022-09-13T02:40:38;-20010.50;;;19.17;100.00
7058;BME280;3570;43.080;25.628;2022-09-13T02:43:34;-20014.28;;;19.30;100.00
7058;BME280;3570;43.080;25.628;2022-09-13T02:49:28;-20010.78;;;19.18;100.00
7058;BME280;3570;43.080;25.628;2022-09-13T02:55:41;-20008.03;;;19.09;100.00
7058;BME280;3570;43.080;25.628;2022-09-13T02:58:32;-20000.06;;;18.81;100.00
7058;BME280;3570;43.080;25.628;2022-09-13T03:01:18;-20000.78;;;18.84;100.00
7058;BME280;3570;43.080;25.628;2022-09-13T03:04:04;-20001.06;;;18.85;100.00
7058;BME280;3570;43.080;25.628;2022-09-13T03:06:48;-20005.88;;;19.01;100.00
7058;BME280;3570;43.080;25.628;2022-09-13T03:09:33;-20008.47;;;19.10;99.80
7058;BME280;3570;43.080;25.628;2022-09-13T03:25:18;-19976.09;;;17.98;100.00
7058;BME280;3570;43.080;25.628;2022-09-13T03:31:09;-19981.47;;;18.17;100.00
7058;BME280;3570;43.080;25.628;2022-09-13T03:34:16;-19984.81;;;18.28;100.00
7058;BME280;3570;43.080;25.628;2022-09-13T03:37:31;-19995.72;;;18.66;100.00
7058;BME280;3570;43.080;25.628;2022-09-13T03:40:40;-19998.59;;;18.76;100.00
7058;BME280;3570;43.080;25.628;2022-09-13T03:43:35;-20004.69;;;18.97;100.00
7058;BME280;3570;43.080;25.628;2022-09-13T03:46:25;-20003.84;;;18.94;100.00
7058;BME280;3570;43.080;25.628;2022-09-13T03:49:13;-20010.38;;;19.17;99.22
7058;BME280;3570;43.080;25.628;2022-09-13T03:51:58;-19999.47;;;18.79;98.53
7058;BME280;3570;43.080;25.628;2022-09-13T03:54:43;-19992.66;;;18.55;100.00
7058;BME280;3570;43.080;25.628;2022-09-13T03:57:28;-19995.13;;;18.64;100.00
7058;BME280;3570;43.080;25.628;2022-09-13T04:00:13;-19997.16;;;18.71;100.00
7058;BME280;3570;43.080;25.628;2022-09-13T04:02:57;-19995.13;;;18.64;100.00
7058;BME280;3570;43.080;25.628;2022-09-13T04:05:42;-19992.50;;;18.55;100.00
7058;BME280;3570;43.080;25.628;2022-09-13T04:08:26;-19984.53;;;18.27;100.00
7058;BME280;3570;43.080;25.628;2022-09-13T04:11:10;-19981.19;;;18.16;100.00
7058;BME280;3570;43.080;25.628;2022-09-13T04:13:54;-19986.84;;;18.35;100.00
7058;BME280;3570;43.080;25.628;2022-09-13T04:16:38;-19974.22;;;17.92;100.00
7058;BME280;3570;43.080;25.628;2022-09-13T04:19:24;-19948.66;;;17.03;100.00
7058;BME280;3570;43.080;25.628;2022-09-13T04:22:08;-19939.91;;;16.73;100.00
7058;BME280;3570;43.080;25.628;2022-09-13T04:24:52;-19934.53;;;16.54;100.00
7058;BME280;3570;43.080;25.628;2022-09-13T04:27:37;-19928.00;;;16.32;100.00
7058;BME280;3570;43.080;25.628;2022-09-13T04:30:21;-19924.22;;;16.19;100.00
7058;BME280;3570;43.080;25.628;2022-09-13T04:33:06;-19917.22;;;15.94;100.00
7058;BME280;3570;43.080;25.628;2022-09-13T04:35:57;-19915.78;;;15.89;100.00
7058;BME280;3570;43.080;25.628;2022-09-13T04:38:41;-19908.78;;;15.65;100.00
7058;BME280;3570;43.080;25.628;2022-09-13T04:41:26;-19901.66;;;15.41;100.00
7058;BME280;3570;43.080;25.628;2022-09-13T04:44:10;-19901.38;;;15.40;100.00
7058;BME280;3570;43.080;25.628;2022-09-13T04:46:54;-19901.38;;;15.40;100.00
7058;BME280;3570;43.080;25.628;2022-09-13T04:49:38;-19906.47;;;15.57;100.00
7058;BME280;3570;43.080;25.628;2022-09-13T04:52:23;-19919.56;;;16.02;100.00
7058;BME280;3570;43.080;25.628;2022-09-13T04:55:07;-19922.47;;;16.13;100.00
7058;BME280;3570;43.080;25.628;2022-09-13T04:57:52;-19925.66;;;16.24;100.00
7058;BME280;3570;43.080;25.628;2022-09-13T05:00:37;-19932.06;;;16.46;100.00
7058;BME280;3570;43.080;25.628;2022-09-13T05:03:21;-19935.56;;;16.58;100.00
7058;BME280;3570;43.080;25.628;2022-09-13T05:06:14;-19933.38;;;16.50;100.00
7058;BME280;3570;43.080;25.628;2022-09-13T05:09:02;-19932.66;;;16.48;100.00
7058;BME280;3570;43.080;25.628;2022-09-13T05:11:47;-19947.63;;;17.00;100.00
7058;BME280;3570;43.080;25.628;2022-09-13T05:14:30;-19968.13;;;17.70;100.00
7058;BME280;3570;43.080;25.628;2022-09-13T05:17:14;-19960.84;;;17.45;100.00
7058;BME280;3570;43.080;25.628;2022-09-13T05:19:58;-19956.19;;;17.29;100.00
7058;BME280;3570;43.080;25.628;2022-09-13T05:22:42;-19946.31;;;16.95;100.00
7058;BME280;3570;43.080;25.628;2022-09-13T05:25:26;-19950.69;;;17.10;100.00
7058;BME280;3570;43.080;25.628;2022-09-13T05:28:10;-19962.00;;;17.49;100.00
7058;BME280;3570;43.080;25.628;2022-09-13T05:31:03;-19951.84;;;17.14;100.00
7058;BME280;3570;43.080;25.628;2022-09-13T05:33:53;-19964.03;;;17.56;100.00
7058;BME280;3570;43.080;25.628;2022-09-13T05:36:37;-19961.28;;;17.47;100.00
7058;BME280;3570;43.080;25.628;2022-09-13T05:39:22;-19966.66;;;17.65;100.00
7058;BME280;3570;43.080;25.628;2022-09-13T05:42:06;-19961.44;;;17.47;100.00
7058;BME280;3570;43.080;25.628;2022-09-13T05:44:50;-19949.50;;;17.06;100.00
7058;BME280;3570;43.080;25.628;2022-09-13T05:47:34;-19944.00;;;16.87;100.00
7058;BME280;3570;43.080;25.628;2022-09-13T05:50:17;-19939.91;;;16.73;100.00
7058;BME280;3570;43.080;25.628;2022-09-13T05:53:01;-19933.22;;;16.50;100.00
7058;BME280;3570;43.080;25.628;2022-09-13T05:55:45;-19941.81;;;16.79;100.00
7058;BME280;3570;43.080;25.628;2022-09-13T05:58:29;-19948.19;;;17.02;100.00
7058;BME280;3570;43.080;25.628;2022-09-13T06:01:15;-19959.97;;;17.42;100.00
7058;BME280;3570;43.080;25.628;2022-09-13T06:04:00;-19963.59;;;17.55;100.00
7058;BME280;3570;43.080;25.628;2022-09-13T06:06:44;-19954.75;;;17.24;100.00
7058;BME280;3570;43.080;25.628;2022-09-13T06:09:28;-19952.13;;;17.15;100.00
7058;BME280;3570;43.080;25.628;2022-09-13T06:12:12;-19964.03;;;17.56;100.00
7058;BME280;3570;43.080;25.628;2022-09-13T06:14:56;-19962.59;;;17.51;100.00
7058;BME280;3570;43.080;25.628;2022-09-13T06:17:40;-19967.25;;;17.67;100.00
7058;BME280;3570;43.080;25.628;2022-09-13T06:20:24;-19970.59;;;17.79;100.00
7058;BME280;3570;43.080;25.628;2022-09-13T06:23:09;-19964.78;;;17.59;100.00
7058;BME280;3570;43.080;25.628;2022-09-13T06:26:10;-19976.25;;;17.99;100.00
7058;BME280;3570;43.080;25.628;2022-09-13T06:28:56;-19983.06;;;18.22;100.00
7058;BME280;3570;43.080;25.628;2022-09-13T06:31:40;-19982.63;;;18.21;100.00
7058;BME280;3570;43.080;25.628;2022-09-13T06:34:27;-19978.44;;;18.06;100.00
7058;BME280;3570;43.080;25.628;2022-09-13T06:37:11;-19982.94;;;18.22;100.00
7058;BME280;3570;43.080;25.628;2022-09-13T06:39:55;-19988.75;;;18.42;100.00
7058;BME280;3570;43.080;25.628;2022-09-13T06:42:40;-19989.03;;;18.43;99.26
7058;BME280;3570;43.080;25.628;2022-09-13T06:45:24;-19990.78;;;18.49;98.74
7058;BME280;3570;43.080;25.628;2022-09-13T06:48:08;-20000.34;;;18.82;95.90
7058;BME280;3570;43.080;25.628;2022-09-13T06:50:57;-19999.91;;;18.81;95.71
7058;BME280;3570;43.080;25.628;2022-09-13T06:53:42;-20008.03;;;19.09;93.65
7058;BME280;3570;43.080;25.628;2022-09-13T06:56:29;-20003.25;;;18.92;88.49
7058;BME280;3570;43.080;25.628;2022-09-13T06:59:15;-20012.81;;;19.25;84.44
7058;BME280;3570;43.080;25.628;2022-09-13T07:01:59;-20008.47;;;19.10;83.58
7058;BME280;3570;43.080;25.628;2022-09-13T07:04:43;-20009.06;;;19.12;84.94
7058;BME280;3570;43.080;25.628;2022-09-13T07:07:27;-20001.38;;;18.86;84.83
7058;BME280;3570;43.080;25.628;2022-09-13T07:10:11;-19999.19;;;18.78;84.74
7058;BME280;3570;43.080;25.628;2022-09-13T07:12:55;-20009.78;;;19.15;85.10
7058;BME280;3570;43.080;25.628;2022-09-13T07:15:39;-20008.91;;;19.12;83.17
7058;BME280;3570;43.080;25.628;2022-09-13T07:18:23;-20008.75;;;19.11;84.70
7058;BME280;3570;43.080;25.628;2022-09-13T07:21:08;-20026.47;;;19.73;82.94
7058;BME280;3570;43.080;25.628;2022-09-13T07:23:54;-20034.72;;;20.01;80.09
7058;BME280;3570;43.080;25.628;2022-09-13T07:26:38;-20042.41;;;20.28;79.78
7058;BME280;3570;43.080;25.628;2022-09-13T07:29:22;-20034.00;;;19.99;77.52
7058;BME280;3570;43.080;25.628;2022-09-13T07:32:06;-20032.25;;;19.93;78.05
7058;BME280;3570;43.080;25.628;2022-09-13T07:34:50;-20034.00;;;19.99;79.08
7058;BME280;3570;43.080;25.628;2022-09-13T07:37:34;-20046.47;;;20.42;81.28
7058;BME280;3570;43.080;25.628;2022-09-13T07:40:18;-20067.03;;;21.13;77.20
7058;BME280;3570;43.080;25.628;2022-09-13T07:43:02;-20067.75;;;21.16;73.58
7058;BME280;3570;43.080;25.628;2022-09-13T07:45:46;-20070.97;;;21.27;74.69
7058;BME280;3570;43.080;25.628;2022-09-13T07:48:33;-20068.06;;;21.17;74.89
7058;BME280;3570;43.080;25.628;2022-09-13T07:51:19;-20064.28;;;21.04;75.36
7058;BME280;3570;43.080;25.628;2022-09-13T07:54:09;-20059.22;;;20.86;75.31
7058;BME280;3570;43.080;25.628;2022-09-13T07:56:53;-20048.78;;;20.50;74.49
7058;BME280;3570;43.080;25.628;2022-09-13T07:59:37;-20057.47;;;20.80;77.05
7058;BME280;3570;43.080;25.628;2022-09-13T08:02:21;-20062.97;;;20.99;72.77
7058;BME280;3570;43.080;25.628;2022-09-13T08:05:05;-20072.84;;;21.33;73.51
7058;BME280;3570;43.080;25.628;2022-09-13T08:07:50;-20064.72;;;21.05;71.49
7058;BME280;3570;43.080;25.628;2022-09-13T08:10:34;-20066.47;;;21.11;73.49
7058;BME280;3570;43.080;25.628;2022-09-13T08:13:18;-20062.97;;;20.99;75.29
7058;BME280;3570;43.080;25.628;2022-09-13T08:16:04;-20088.47;;;21.88;66.17
7058;BME280;3570;43.080;25.628;2022-09-13T08:18:51;-20088.63;;;21.88;66.35
7058;BME280;3570;43.080;25.628;2022-09-13T08:21:38;-20075.31;;;21.42;66.95
7058;BME280;3570;43.080;25.628;2022-09-13T08:24:23;-20075.44;;;21.42;67.08
7058;BME280;3570;43.080;25.628;2022-09-13T08:27:07;-20082.97;;;21.69;64.98
7058;BME280;3570;43.080;25.628;2022-09-13T08:29:51;-20091.09;;;21.97;65.41
7058;BME280;3570;43.080;25.628;2022-09-13T08:32:35;-20093.69;;;22.06;61.66
7058;BME280;3570;43.080;25.628;2022-09-13T08:35:19;-20097.88;;;22.20;61.02
7058;BME280;3570;43.080;25.628;2022-09-13T08:38:04;-20107.13;;;22.53;60.53
7058;BME280;3570;43.080;25.628;2022-09-13T08:44:46;-20099.47;;;22.26;57.38
7058;BME280;3570;43.080;25.628;2022-09-13T08:47:37;-20102.06;;;22.35;60.25
7058;BME280;3570;43.080;25.628;2022-09-13T08:50:27;-20136.34;;;23.54;60.54
7058;BME280;3570;43.080;25.628;2022-09-13T08:53:22;-20185.44;;;25.25;54.43
7058;BME280;3570;43.080;25.628;2022-09-13T08:56:10;-20145.44;;;23.86;52.80
7058;BME280;3570;43.080;25.628;2022-09-13T09:05:01;-20155.28;;;24.20;52.70
7058;BME280;3570;43.080;25.628;2022-09-13T09:07:57;-20112.94;;;22.73;56.77
7058;BME280;3570;43.080;25.628;2022-09-13T09:10:48;-20131.28;;;23.37;54.03
7058;BME280;3570;43.080;25.628;2022-09-13T09:13:36;-20128.69;;;23.27;54.73
7058;BME280;3570;43.080;25.628;2022-09-13T09:16:40;-20137.38;;;23.58;53.15
7058;BME280;3570;43.080;25.628;2022-09-13T09:19:32;-20159.91;;;24.36;55.48
7058;BME280;3570;43.080;25.628;2022-09-13T09:22:20;-20208.38;;;26.05;47.92
7058;BME280;3570;43.080;25.628;2022-09-13T09:25:08;-20193.09;;;25.52;46.20
7058;BME280;3570;43.080;25.628;2022-09-13T09:27:55;-20213.72;;;26.24;48.20
7058;BME280;3570;43.080;25.628;2022-09-13T09:31:01;-20271.03;;;28.24;43.47
7058;BME280;3570;43.080;25.628;2022-09-13T09:33:51;-20299.06;;;29.22;39.75
7058;BME280;3570;43.080;25.628;2022-09-13T09:36:42;-20219.34;;;26.43;42.08
7058;BME280;3570;43.080;25.628;2022-09-13T09:39:29;-20165.09;;;24.54;47.66
7058;BME280;3570;43.080;25.628;2022-09-13T09:42:27;-20159.59;;;24.35;50.36
7058;BME280;3570;43.080;25.628;2022-09-13T09:45:30;-20233.03;;;26.91;46.32
7058;BME280;3570;43.080;25.628;2022-09-13T09:48:18;-20272.63;;;28.29;39.77
7058;BME280;3570;43.080;25.628;2022-09-13T09:51:07;-20192.38;;;25.49;45.35
7058;BME280;3570;43.080;25.628;2022-09-13T09:53:59;-20188.47;;;25.36;46.81
7058;BME280;3570;43.080;25.628;2022-09-13T09:56:52;-20253.03;;;27.61;42.48
7058;BME280;3570;43.080;25.628;2022-09-13T09:59:37;-20238.06;;;27.09;41.46
7058;BME280;3570;43.080;25.628;2022-09-13T10:02:22;-20240.38;;;27.17;42.10
7058;BME280;3570;43.080;25.628;2022-09-13T10:05:06;-20189.34;;;25.39;44.12
7058;BME280;3570;43.080;25.628;2022-09-13T10:08:03;-20156.56;;;24.24;45.12
7058;BME280;3570;43.080;25.628;2022-09-13T10:10:56;-20204.63;;;25.92;47.33
7058;BME280;3570;43.080;25.628;2022-09-13T10:14:55;-20198.00;;;25.69;39.69
7058;BME280;3570;43.080;25.628;2022-09-13T10:17:25;-20152.81;;;24.11;41.89
7058;BME280;3570;43.080;25.628;2022-09-13T10:28:55;-20189.19;;;25.38;43.56
7058;BME280;3570;43.080;25.628;2022-09-13T10:31:45;-20179.09;;;25.03;41.38
7058;BME280;3570;43.080;25.628;2022-09-13T10:34:32;-20172.31;;;24.79;42.74
7058;BME280;3570;43.080;25.628;2022-09-13T10:37:21;-20140.69;;;23.69;44.20
7058;BME280;3570;43.080;25.628;2022-09-13T10:40:26;-20134.03;;;23.46;46.54
7058;BME280;3570;43.080;25.628;2022-09-13T10:43:14;-20188.91;;;25.37;42.41
7058;BME280;3570;43.080;25.628;2022-09-13T10:46:03;-20251.03;;;27.54;36.31
7058;BME280;3570;43.080;25.628;2022-09-13T10:48:49;-20251.47;;;27.55;35.42
7058;BME280;3570;43.080;25.628;2022-09-13T10:51:39;-20262.53;;;27.94;35.71
7058;BME280;3570;43.080;25.628;2022-09-13T10:54:23;-20279.22;;;28.52;34.48
7058;BME280;3570;43.080;25.628;2022-09-13T10:57:35;-20298.06;;;29.18;33.51
7058;BME280;3570;43.080;25.628;2022-09-13T11:00:30;-20320.91;;;29.98;33.69
7058;BME280;3570;43.080;25.628;2022-09-13T11:03:40;-20326.66;;;30.18;32.45
7058;BME280;3570;43.080;25.628;2022-09-13T11:09:21;-20225.09;;;26.63;39.24
7058;BME280;3570;43.080;25.628;2022-09-13T11:12:29;-20228.28;;;26.74;38.59
7058;BME280;3570;43.080;25.628;2022-09-13T11:21:24;-20273.63;;;28.33;37.14
7058;BME280;3570;43.080;25.628;2022-09-13T11:24:29;-20292.03;;;28.97;33.77
7058;BME280;3570;43.080;25.628;2022-09-13T11:27:30;-20335.84;;;30.50;31.97
7058;BME280;3570;43.080;25.628;2022-09-13T11:30:23;-20278.78;;;28.51;33.90
7058;BME280;3570;43.080;25.628;2022-09-13T11:39:38;-20209.38;;;26.08;39.50
7058;BME280;3570;43.080;25.628;2022-09-13T11:45:28;-20283.81;;;28.68;34.64
7058;BME280;3570;43.080;25.628;2022-09-13T11:54:32;-20232.72;;;26.90;37.80
7058;BME280;3570;43.080;25.628;2022-09-13T11:57:39;-20235.75;;;27.01;37.01
7058;BME280;3570;43.080;25.628;2022-09-13T12:00:40;-20197.84;;;25.68;37.66
7058;BME280;3570;43.080;25.628;2022-09-13T12:03:32;-20180.25;;;25.07;39.17
7058;BME280;3570;43.080;25.628;2022-09-13T12:06:23;-20162.50;;;24.45;41.18
7058;BME280;3570;43.080;25.628;2022-09-13T12:09:24;-20157.59;;;24.28;41.93
7058;BME280;3570;43.080;25.628;2022-09-13T12:12:10;-20157.00;;;24.26;42.28
7058;BME280;3570;43.080;25.628;2022-09-13T12:15:02;-20152.97;;;24.12;43.39
7058;BME280;3570;43.080;25.628;2022-09-13T12:17:54;-20155.13;;;24.19;42.58
7058;BME280;3570;43.080;25.628;2022-09-13T12:20:49;-20157.28;;;24.27;41.74
7058;BME280;3570;43.080;25.628;2022-09-13T12:23:42;-20162.94;;;24.47;41.77
7058;BME280;3570;43.080;25.628;2022-09-13T12:26:34;-20195.41;;;25.60;37.84
7058;BME280;3570;43.080;25.628;2022-09-13T12:32:09;-20173.47;;;24.83;39.74
7058;BME280;3570;43.080;25.628;2022-09-13T12:35:09;-20157.88;;;24.29;40.73
7058;BME280;3570;43.080;25.628;2022-09-13T12:54:17;-20285.25;;;28.73;31.42
7058;BME280;3570;43.080;25.628;2022-09-13T12:57:21;-20239.22;;;27.13;35.34
7058;BME280;3570;43.080;25.628;2022-09-13T13:00:24;-20228.13;;;26.74;35.63
7058;BME280;3570;43.080;25.628;2022-09-13T13:06:34;-20312.28;;;29.68;31.25
7058;BME280;3570;43.080;25.628;2022-09-13T13:12:46;-20220.19;;;26.46;34.10
7058;BME280;3570;43.080;25.628;2022-09-13T13:21:45;-20255.63;;;27.70;34.36
7058;BME280;3570;43.080;25.628;2022-09-13T13:27:35;-20423.81;;;33.59;26.39
7058;BME280;3570;43.080;25.628;2022-09-13T13:30:49;-20374.41;;;31.86;26.98
7058;BME280;3570;43.080;25.628;2022-09-13T13:33:48;-20210.53;;;26.13;33.82
7058;BME280;3570;43.080;25.628;2022-09-13T13:42:28;-20212.13;;;26.18;36.00
7058;BME280;3570;43.080;25.628;2022-09-13T13:45:25;-20207.66;;;26.02;35.95
7058;BME280;3570;43.080;25.628;2022-09-13T13:48:14;-20173.75;;;24.84;37.80
7058;BME280;3570;43.080;25.628;2022-09-13T13:51:16;-20149.50;;;24.00;40.89
7058;BME280;3570;43.080;25.628;2022-09-13T13:54:04;-20172.47;;;24.80;39.04
7058;BME280;3570;43.080;25.628;2022-09-13T14:00:47;-20177.94;;;24.99;39.20
7058;BME280;3570;43.080;25.628;2022-09-13T14:10:12;-20293.59;;;29.03;31.39
7058;BME280;3570;43.080;25.628;2022-09-13T14:13:17;-20324.34;;;30.10;29.92
7058;BME280;3570;43.080;25.628;2022-09-13T14:22:18;-20173.75;;;24.84;39.50
7058;BME280;3570;43.080;25.628;2022-09-13T14:25:23;-20245.41;;;27.34;36.39
7058;BME280;3570;43.080;25.628;2022-09-13T14:28:08;-20269.31;;;28.18;34.07
7058;BME280;3570;43.080;25.628;2022-09-13T14:30:54;-20211.13;;;26.15;36.98
7058;BME280;3570;43.080;25.628;2022-09-13T14:33:39;-20179.38;;;25.04;39.36
7058;BME280;3570;43.080;25.628;2022-09-13T14:36:23;-20166.69;;;24.60;40.44
7058;BME280;3570;43.080;25.628;2022-09-13T14:39:10;-20173.75;;;24.84;40.47
7058;BME280;3570;43.080;25.628;2022-09-13T14:44:46;-20237.91;;;27.08;36.17
7058;BME280;3570;43.080;25.628;2022-09-13T14:50:52;-20221.63;;;26.51;37.31
7058;BME280;3570;43.080;25.628;2022-09-13T14:53:41;-20197.56;;;25.67;37.77
7058;BME280;3570;43.080;25.628;2022-09-13T14:56:34;-20163.94;;;24.50;40.00
7058;BME280;3570;43.080;25.628;2022-09-13T15:02:25;-20188.31;;;25.35;38.73
7058;BME280;3570;43.080;25.628;2022-09-13T15:05:15;-20204.91;;;25.93;37.45
7058;BME280;3570;43.080;25.628;2022-09-13T15:07:59;-20197.13;;;25.66;37.66
7058;BME280;3570;43.080;25.628;2022-09-13T15:11:06;-20185.88;;;25.27;38.40
7058;BME280;3570;43.080;25.628;2022-09-13T15:14:01;-20196.25;;;25.63;36.65
7058;BME280;3570;43.080;25.628;2022-09-13T15:16:53;-20224.66;;;26.62;35.23
7058;BME280;3570;43.080;25.628;2022-09-13T15:20:02;-20240.09;;;27.16;33.81
7058;BME280;3570;43.080;25.628;2022-09-13T15:22:47;-20283.69;;;28.68;31.25
7058;BME280;3570;43.080;25.628;2022-09-13T15:25:33;-20291.16;;;28.94;30.80
7058;BME280;3570;43.080;25.628;2022-09-13T15:28:24;-20300.34;;;29.26;31.06
7058;BME280;3570;43.080;25.628;2022-09-13T15:31:10;-20288.56;;;28.85;30.80
7058;BME280;3570;43.080;25.628;2022-09-13T15:37:11;-20244.41;;;27.31;31.85
7058;BME280;3570;43.080;25.628;2022-09-13T15:40:14;-20230.28;;;26.81;33.54
7058;BME280;3570;43.080;25.628;2022-09-13T15:42:59;-20226.53;;;26.68;33.78
7058;BME280;3570;43.080;25.628;2022-09-13T15:45:44;-20218.31;;;26.40;34.71
7058;BME280;3570;43.080;25.628;2022-09-13T15:48:32;-20212.13;;;26.18;34.83
7058;BME280;3570;43.080;25.628;2022-09-13T15:51:16;-20224.66;;;26.62;34.10
7058;BME280;3570;43.080;25.628;2022-09-13T15:54:00;-20227.25;;;26.71;34.37
7058;BME280;3570;43.080;25.628;2022-09-13T15:56:46;-20222.94;;;26.56;34.65
7058;BME280;3570;43.080;25.628;2022-09-13T15:59:31;-20200.00;;;25.76;35.47
7058;BME280;3570;43.080;25.628;2022-09-13T16:02:24;-20198.56;;;25.71;35.87
7058;BME280;3570;43.080;25.628;2022-09-13T16:05:08;-20172.31;;;24.79;39.88
7058;BME280;3570;43.080;25.628;2022-09-13T16:07:54;-20139.09;;;23.64;40.24
7058;BME280;3570;43.080;25.628;2022-09-13T16:10:41;-20129.84;;;23.31;40.89
7058;BME280;3570;43.080;25.628;2022-09-13T16:13:25;-20124.06;;;23.11;41.64
7058;BME280;3570;43.080;25.628;2022-09-13T16:16:12;-20108.16;;;22.56;42.55
7058;BME280;3570;43.080;25.628;2022-09-13T16:18:57;-20101.22;;;22.32;43.38
7058;BME280;3570;43.080;25.628;2022-09-13T16:21:41;-20090.06;;;21.93;45.38
7058;BME280;3570;43.080;25.628;2022-09-13T16:24:25;-20086.16;;;21.80;45.27
7058;BME280;3570;43.080;25.628;2022-09-13T16:27:15;-20080.38;;;21.60;45.58
7058;BME280;3570;43.080;25.628;2022-09-13T16:30:00;-20077.47;;;21.49;46.68
7058;BME280;3570;43.080;25.628;2022-09-13T16:32:45;-20066.63;;;21.12;47.17
7058;BME280;3570;43.080;25.628;2022-09-13T16:35:30;-20066.31;;;21.11;47.74
7058;BME280;3570;43.080;25.628;2022-09-13T16:38:14;-20060.38;;;20.90;48.63
7058;BME280;3570;43.080;25.628;2022-09-13T16:40:58;-20056.31;;;20.76;49.68
7058;BME280;3570;43.080;25.628;2022-09-13T16:43:42;-20050.53;;;20.56;50.51
7058;BME280;3570;43.080;25.628;2022-09-13T16:46:26;-20047.34;;;20.45;50.64
7058;BME280;3570;43.080;25.628;2022-09-13T16:49:11;-20045.44;;;20.38;51.24
7058;BME280;3570;43.080;25.628;2022-09-13T16:51:55;-20042.56;;;20.28;50.74
7058;BME280;3570;43.080;25.628;2022-09-13T16:54:42;-20041.69;;;20.25;51.66
7058;BME280;3570;43.080;25.628;2022-09-13T16:57:29;-20037.47;;;20.11;52.12
7058;BME280;3570;43.080;25.628;2022-09-13T17:00:14;-20029.50;;;19.83;53.09
7058;BME280;3570;43.080;25.628;2022-09-13T17:02:58;-20029.38;;;19.83;54.13
7058;BME280;3570;43.080;25.628;2022-09-13T17:05:43;-20030.81;;;19.88;55.54
7058;BME280;3570;43.080;25.628;2022-09-13T17:08:27;-20021.69;;;19.56;56.52
7058;BME280;3570;43.080;25.628;2022-09-13T17:11:13;-20022.84;;;19.60;56.71
7058;BME280;3570;43.080;25.628;2022-09-13T17:13:59;-20021.25;;;19.54;56.57
7058;BME280;3570;43.080;25.628;2022-09-13T17:16:52;-20018.78;;;19.46;57.13
7058;BME280;3570;43.080;25.628;2022-09-13T17:19:36;-20014.56;;;19.31;58.09
7058;BME280;3570;43.080;25.628;2022-09-13T17:22:20;-20010.50;;;19.17;58.70
7058;BME280;3570;43.080;25.628;2022-09-13T17:25:04;-20002.09;;;18.88;59.76
7058;BME280;3570;43.080;25.628;2022-09-13T17:27:51;-19999.19;;;18.78;61.26
7058;BME280;3570;43.080;25.628;2022-09-13T17:30:36;-20005.28;;;18.99;63.40